Weather reports worldwide

Advertisment
Mont Aigoual, France (7560): temperature & dewpoint: 19.06.2018 04:00:00 - 25.06.2018 04:00:00 (CEST)Mont Aigoual, France (7560): wind speed & gusts: 19.06.2018 04:00:00 - 25.06.2018 04:00:00 (CEST)Mont Aigoual, France (7560): wind direction: 19.06.2018 04:00:00 - 25.06.2018 04:00:00 (CEST)Mont Aigoual, France (7560): visibility: 19.06.2018 04:00:00 - 25.06.2018 04:00:00 (CEST)Mont Aigoual, France (7560): precipitation: 19.06.2018 04:00:00 - 25.06.2018 04:00:00 (CEST)
Date & Time tt [°C] td [°C] ff [km/h] ff [kn] fx [km/h] fx [kn] dd vv [km] rr [mm]
25.06.2018 04:00:00 11,0 3,5 5 3 18 10 N 20 0,0
25.06.2018 03:00:00 11,6 1,8 14 8 17 9 NNW 20 0,0
25.06.2018 02:00:00 11,5 3,5 13 7 16 9 N 20 0,0
25.06.2018 01:00:00 11,8 5,9 8 4 17 9 N 20 0,0
25.06.2018 00:00:00 11,6 6,9 10 5 14 8 NNW 20 0,0
24.06.2018 23:00:00 11,9 8,6 14 7 16 9 N 20 0,0
24.06.2018 22:00:00 12,8 8,3 14 8 19 10 NNE 20 0,0
24.06.2018 21:00:00 14,6 8,1 9 5 18 10 ENE 20 0,0
24.06.2018 20:00:00 15,4 8,2 6 3 27 15 ENE 20 0,0
24.06.2018 19:00:00 17,0 7,9 14 8 35 19 N 20 0,0
24.06.2018 18:00:00 17,1 5,1 20 11 35 19 N 20 0,0
24.06.2018 17:00:00 17,7 6,2 12 7 28 15 NNW 20 0,0
24.06.2018 16:00:00 17,5 3,7 11 6 30 16 WNW 20 0,0
24.06.2018 15:00:00 17,1 6,3 7 4 21 11 SW 20 0,0
24.06.2018 14:00:00 16,5 6,3 7 4 19 10 SSW 20 0,0
24.06.2018 13:00:00 16,3 7,0 4 2 23 13 E 17 0,0
24.06.2018 12:00:00 14,8 -0,9 5 3 22 12 NE 20 0,0
24.06.2018 11:00:00 13,9 -0,9 11 6 21 11 NE 20 0,0
24.06.2018 10:00:00 13,3 -0,4 10 5 17 9 ENE 20 0,0
24.06.2018 09:00:00 12,8 -0,5 12 6 18 10 E 20 0,0
24.06.2018 08:00:00 13,7 1,7 10 5 16 9 NE 20 0,0
24.06.2018 07:00:00 12,2 -4,0 3 2 6 4 E 20 0,0
24.06.2018 06:00:00 11,2 0,3 4 2 7 4 SE 20 0,0
24.06.2018 05:00:00 11,8 -2,8 4 2 9 5 N 20 0,0
24.06.2018 04:00:00 11,7 0,4 3 1 8 4 S 20 0,0
24.06.2018 03:00:00 11,5 1,1 4 2 13 7 S 20 0,0
24.06.2018 02:00:00 11,3 -0,2 12 7 21 11 N 20 0,0
24.06.2018 01:00:00 11,5 2,2 13 7 24 13 NW 20 0,0
24.06.2018 00:00:00 12,4 3,1 18 10 24 13 W 20 0,0
23.06.2018 23:00:00 13,2 3,5 6 3 11 6 S 20 0,0
23.06.2018 22:00:00 13,9 4,5 3 2 12 6 N 20 0,0
23.06.2018 21:00:00 14,5 5,3 9 5 15 8 E 20 0,0
23.06.2018 20:00:00 16,2 6,0 4 2 16 9 SSW 19 0,0
23.06.2018 19:00:00 16,9 6,7 9 5 31 17 SSW 20 0,0
23.06.2018 18:00:00 17,4 6,3 13 7 27 14 S 20 0,0
23.06.2018 17:00:00 17,3 6,2 16 9 27 14 S 20 0,0
23.06.2018 16:00:00 17,3 6,2 9 5 27 15 SSW 20 0,0
23.06.2018 15:00:00 17,1 5,1 10 5 24 13 S 20 0,0
23.06.2018 14:00:00 16,5 3,9 5 3 22 12 SE 19 0,0
23.06.2018 13:00:00 15,7 4,1 8 4 26 14 ESE 20 0,0
23.06.2018 12:00:00 14,6 1,5 12 6 36 20 ENE 20 0,0
23.06.2018 11:00:00 14,1 -2,4 14 8 29 16 NNE 20 0,0
23.06.2018 10:00:00 13,8 -4,4 15 8 31 17 NNE 20 0,0
23.06.2018 09:00:00 13,6 -6,1 16 9 39 21 NNE 20 0,0
23.06.2018 08:00:00 12,6 -6,4 28 15 41 22 N 20 0,0
23.06.2018 07:00:00 12,0 -6,9 32 18 45 25 N 20 0,0
23.06.2018 06:00:00 11,3 -8,1 33 18 42 23 NNE 20 0,0
23.06.2018 05:00:00 11,0 -7,8 35 19 50 27 N 20 0,0
23.06.2018 04:00:00 11,3 -7,5 42 23 60 32 N 20 0,0
23.06.2018 03:00:00 11,3 -6,6 46 25 66 35 N 20 0,0
23.06.2018 02:00:00 11,2 -6,2 49 27 67 36 N 20 0,0
23.06.2018 01:00:00 10,5 -3,2 53 28 74 40 N 20 0,0
23.06.2018 00:00:00 9,7 -2,0 51 27 65 35 N 20 0,0
22.06.2018 23:00:00 10,3 -2,1 51 28 65 35 N 20 0,0
22.06.2018 22:00:00 9,1 1,3 58 31 67 36 N 20 0,0
22.06.2018 21:00:00 11,0 -0,5 52 28 70 38 N 20 0,0
22.06.2018 20:00:00 12,4 -1,2 46 25 68 37 N 20 0,0
22.06.2018 19:00:00 13,3 -1,5 56 31 83 45 N 20 0,0
22.06.2018 18:00:00 14,0 -0,5 57 31 77 42 N 20 0,0
22.06.2018 17:00:00 14,2 -1,1 57 31 78 42 N 20 0,0
22.06.2018 16:00:00 14,5 -1,2 49 26 72 39 N 20 0,0
22.06.2018 15:00:00 14,2 -1,1 49 26 70 38 N 20 0,0
22.06.2018 14:00:00 14,1 0,0 47 25 64 35 N 20 0,0
22.06.2018 13:00:00 13,9 1,5 36 20 54 29 N 20 0,0
22.06.2018 12:00:00 12,6 2,7 37 20 59 32 N 20 0,0
22.06.2018 11:00:00 12,1 3,6 42 23 60 33 N 20 0,0
22.06.2018 10:00:00 12,0 3,7 34 19 64 35 N 20 0,0
22.06.2018 09:00:00 11,2 6,9 53 29 72 39 N 20 0,0
22.06.2018 08:00:00 9,7 8,9 55 30 73 40 N 18 0,0
22.06.2018 07:00:00 9,7 9,1 54 29 72 39 N 15 0,0
22.06.2018 06:00:00 9,7 9,4 58 31 72 39 N 0,2 0,0
22.06.2018 05:00:00 11,1 10,0 50 27 66 36 N 20 0,0
22.06.2018 04:00:00 11,4 10,8 53 29 67 36 N 11 0,0
22.06.2018 03:00:00 12,2 10,9 49 27 64 35 N 20 0,0
22.06.2018 02:00:00 12,5 11,1 39 21 48 26 N 20 0,0
22.06.2018 01:00:00 13,2 11,1 39 21 56 30 N 20 0,0
22.06.2018 00:00:00 14,1 11,1 41 22 51 28 N 20 0,0
21.06.2018 23:00:00 15,3 11,7 31 17 50 27 N 20 0,0
21.06.2018 22:00:00 16,3 12,8 39 21 51 28 N 20 0,0
21.06.2018 21:00:00 17,4 12,9 39 21 54 29 NNW 20 0,0
21.06.2018 20:00:00 18,2 13,1 32 18 61 33 N 20 0,0
21.06.2018 19:00:00 19,9 12,6 31 17 55 30 NNW 20 0,0
21.06.2018 18:00:00 20,1 13,1 36 20 55 30 NW 20 0,0
21.06.2018 17:00:00 20,6 13,8 29 15 41 22 NW 20 0,0
21.06.2018 16:00:00 21,3 14,0 18 10 40 22 NNW 20 0,0
21.06.2018 15:00:00 20,9 13,1 19 11 40 21 NW 20 0,0
21.06.2018 14:00:00 20,0 12,0 14 8 34 19 N 20 0,0
21.06.2018 13:00:00 19,2 12,7 9 5 32 17 N 20 0,0
21.06.2018 12:00:00 18,2 12,6 19 10 37 20 NNW 20 0,0
21.06.2018 11:00:00 18,1 14,0 23 13 37 20 N 20 0,0
21.06.2018 10:00:00 18,2 13,3 19 11 41 22 N 20 0,0
21.06.2018 09:00:00 17,3 13,2 27 15 39 21 N 20 0,0
21.06.2018 08:00:00 16,5 13,0 22 12 29 15 NW 20 0,0
21.06.2018 07:00:00 15,7 11,1 26 14 34 18 NW 20 0,0
21.06.2018 06:00:00 15,5 8,7 23 12 29 15 WNW 20 0,0
21.06.2018 05:00:00 15,8 9,0 24 13 29 16 NW 20 0,0
21.06.2018 04:00:00 16,1 10,0 23 12 26 14 NW 20 0,0
21.06.2018 03:00:00 16,1 6,2 18 10 21 12 WNW 20 0,0
21.06.2018 02:00:00 16,5 7,7 15 8 17 9 NW 20 0,0
21.06.2018 01:00:00 16,5 7,9 7 4 16 8 SW 20 0,0
21.06.2018 00:00:00 16,2 9,8 11 6 20 11 WSW 20 0,0
20.06.2018 23:00:00 16,0 12,4 12 7 19 10 SW 20 0,0
20.06.2018 22:00:00 16,6 13,9 12 6 18 10 SSW 20 0,0
20.06.2018 21:00:00 17,6 12,7 5 3 13 7 WSW 20 0,0
20.06.2018 20:00:00 16,9 14,7 15 8 34 18 SSW 19 0,0
20.06.2018 19:00:00 17,4 14,7 26 14 35 19 S 20 0,0
20.06.2018 18:00:00 19,7 13,2 27 14 46 25 S 20 0,0
20.06.2018 17:00:00 20,1 13,1 26 14 45 24 S 20 0,0
20.06.2018 16:00:00 20,1 12,3 26 14 46 25 S 20 0,0
20.06.2018 15:00:00 20,2 14,1 19 11 40 22 S 20 0,0
20.06.2018 14:00:00 19,6 14,0 21 11 36 20 S 20 0,0
20.06.2018 13:00:00 18,7 13,5 19 10 37 20 S 19 0,0
20.06.2018 12:00:00 18,1 12,8 15 8 27 15 S 20 0,0
20.06.2018 11:00:00 17,8 12,7 10 5 17 9 S 20 0,0
20.06.2018 10:00:00 17,1 12,8 4 2 17 9 S 19 0,0
20.06.2018 09:00:00 16,3 12,1 10 6 18 10 ENE 20 0,0
20.06.2018 08:00:00 15,6 11,4 7 4 14 7 NNE 20 0,0
20.06.2018 07:00:00 14,8 10,4 6 3 9 5 E 20 0,0
20.06.2018 06:00:00 14,0 11,2 2 1 10 5 E 20 0,0
20.06.2018 05:00:00 14,4 12,4 9 5 12 6 WSW 20 0,0
20.06.2018 04:00:00 13,9 11,4 7 4 12 7 SW 20 0,0
20.06.2018 03:00:00 14,4 10,6 5 3 9 5 SSW 20 0,0
20.06.2018 02:00:00 14,8 10,8 5 3 8 4 SSW 20 0,0
20.06.2018 01:00:00 15,3 10,9 5 3 11 6 S 20 0,0
20.06.2018 00:00:00 15,0 11,4 9 5 16 9 SSW 20 0,0
19.06.2018 23:00:00 15,7 11,7 13 7 16 9 SSW 20 0,0
19.06.2018 22:00:00 16,2 11,8 9 5 13 7 SSW 20 0,0
19.06.2018 21:00:00 17,2 11,5 4 2 14 8 S 20 0,0
19.06.2018 20:00:00 18,3 11,8 11 6 18 10 S 20 0,0
19.06.2018 19:00:00 18,9 11,9 9 5 19 11 S 20 0,0
19.06.2018 18:00:00 19,7 11,5 10 6 22 12 S 20 0,0
19.06.2018 17:00:00 19,8 11,8 13 7 27 15 S 20 0,0
19.06.2018 16:00:00 19,2 11,0 14 7 32 17 S 20 0,0
19.06.2018 15:00:00 18,2 11,0 16 8 29 16 S 20 0,0
19.06.2018 14:00:00 18,4 11,7 13 7 31 17 S 20 0,0
19.06.2018 13:00:00 17,6 10,7 11 6 29 15 SSE 20 0,0
19.06.2018 12:00:00 16,5 9,9 14 8 32 17 ESE 20 0,0
19.06.2018 11:00:00 15,4 9,1 16 9 42 23 E 20 0,0
19.06.2018 10:00:00 14,1 8,7 26 14 43 23 NE 20 0,0
19.06.2018 09:00:00 13,2 8,9 29 16 56 30 NNE 20 0,0
19.06.2018 08:00:00 11,9 7,6 41 22 58 31 N 20 0,0
19.06.2018 07:00:00 11,0 7,3 43 23 56 30 N 20 0,0
19.06.2018 06:00:00 10,4 6,7 47 26 59 32 N 20 0,0
19.06.2018 05:00:00 9,4 7,3 48 26 64 35 N 20 0,0
19.06.2018 04:00:00 8,5 7,6 45 25 56 30 N 20 0,0

tt = temperature
td = dewpoint
ff = wind speed
fx = gusts
dd = wind direction
vv = visibility
rr = precipitation

Next stations